sensor_id;sensor_type;location;lat;lon;timestamp;temperature;humidity
51619;DHT22;38518;53.164;5.430;2023-09-30T00:01:55;15.40;20.50
51619;DHT22;38518;53.164;5.430;2023-09-30T00:04:21;15.40;20.60
51619;DHT22;38518;53.164;5.430;2023-09-30T00:06:46;15.30;21.00
51619;DHT22;38518;53.164;5.430;2023-09-30T00:09:12;15.30;21.90
51619;DHT22;38518;53.164;5.430;2023-09-30T00:11:39;15.30;22.70
51619;DHT22;38518;53.164;5.430;2023-09-30T00:14:04;15.20;25.10
51619;DHT22;38518;53.164;5.430;2023-09-30T00:16:30;15.20;26.00
51619;DHT22;38518;53.164;5.430;2023-09-30T00:18:56;15.20;26.60
51619;DHT22;38518;53.164;5.430;2023-09-30T00:21:24;15.20;27.50
51619;DHT22;38518;53.164;5.430;2023-09-30T00:23:50;15.20;28.30
51619;DHT22;38518;53.164;5.430;2023-09-30T00:26:16;15.20;28.90
51619;DHT22;38518;53.164;5.430;2023-09-30T00:28:41;15.20;29.00
51619;DHT22;38518;53.164;5.430;2023-09-30T00:31:08;15.30;23.50
51619;DHT22;38518;53.164;5.430;2023-09-30T00:33:37;15.40;19.90
51619;DHT22;38518;53.164;5.430;2023-09-30T00:36:07;15.40;17.50
51619;DHT22;38518;53.164;5.430;2023-09-30T00:38:33;15.50;15.70
51619;DHT22;38518;53.164;5.430;2023-09-30T00:40:59;15.50;17.80
51619;DHT22;38518;53.164;5.430;2023-09-30T00:43:24;15.50;18.50
51619;DHT22;38518;53.164;5.430;2023-09-30T00:46:09;15.50;18.70
51619;DHT22;38518;53.164;5.430;2023-09-30T00:48:37;15.50;19.30
51619;DHT22;38518;53.164;5.430;2023-09-30T00:51:03;15.50;20.20
51619;DHT22;38518;53.164;5.430;2023-09-30T00:53:29;15.60;20.60
51619;DHT22;38518;53.164;5.430;2023-09-30T00:55:56;15.60;22.50
51619;DHT22;38518;53.164;5.430;2023-09-30T00:58:23;15.60;23.70
51619;DHT22;38518;53.164;5.430;2023-09-30T01:00:53;15.60;25.70
51619;DHT22;38518;53.164;5.430;2023-09-30T01:03:18;15.70;24.10
51619;DHT22;38518;53.164;5.430;2023-09-30T01:05:45;15.70;23.10
51619;DHT22;38518;53.164;5.430;2023-09-30T01:08:11;15.70;20.10
51619;DHT22;38518;53.164;5.430;2023-09-30T01:10:37;15.70;15.20
51619;DHT22;38518;53.164;5.430;2023-09-30T01:13:02;15.70;11.60
51619;DHT22;38518;53.164;5.430;2023-09-30T01:15:31;15.70;8.50
51619;DHT22;38518;53.164;5.430;2023-09-30T01:17:57;15.60;6.30
51619;DHT22;38518;53.164;5.430;2023-09-30T01:20:23;15.50;5.40
51619;DHT22;38518;53.164;5.430;2023-09-30T01:22:49;15.50;5.60
51619;DHT22;38518;53.164;5.430;2023-09-30T01:25:16;15.70;6.30
51619;DHT22;38518;53.164;5.430;2023-09-30T01:27:41;15.40;7.90
51619;DHT22;38518;53.164;5.430;2023-09-30T01:30:08;15.50;9.50
51619;DHT22;38518;53.164;5.430;2023-09-30T01:32:39;15.40;11.50
51619;DHT22;38518;53.164;5.430;2023-09-30T01:35:06;15.50;12.80
51619;DHT22;38518;53.164;5.430;2023-09-30T01:37:31;15.50;13.80
51619;DHT22;38518;53.164;5.430;2023-09-30T01:39:57;14.90;13.80
51619;DHT22;38518;53.164;5.430;2023-09-30T01:42:23;15.50;13.50
51619;DHT22;38518;53.164;5.430;2023-09-30T01:44:49;15.40;11.00
51619;DHT22;38518;53.164;5.430;2023-09-30T01:47:14;15.40;9.20
51619;DHT22;38518;53.164;5.430;2023-09-30T01:49:40;15.40;6.70
51619;DHT22;38518;53.164;5.430;2023-09-30T01:52:06;15.40;3.00
51619;DHT22;38518;53.164;5.430;2023-09-30T01:54:31;15.40;2.30
51619;DHT22;38518;53.164;5.430;2023-09-30T01:56:57;15.30;1.00
51619;DHT22;38518;53.164;5.430;2023-09-30T01:59:24;15.30;1.00
51619;DHT22;38518;53.164;5.430;2023-09-30T02:01:50;15.30;1.00
51619;DHT22;38518;53.164;5.430;2023-09-30T02:04:15;15.30;1.00
51619;DHT22;38518;53.164;5.430;2023-09-30T02:06:41;15.30;1.00
51619;DHT22;38518;53.164;5.430;2023-09-30T02:09:07;15.20;1.00
51619;DHT22;38518;53.164;5.430;2023-09-30T02:11:35;15.20;1.00
51619;DHT22;38518;53.164;5.430;2023-09-30T02:14:02;15.20;1.00
51619;DHT22;38518;53.164;5.430;2023-09-30T02:16:28;15.20;1.00
51619;DHT22;38518;53.164;5.430;2023-09-30T02:18:53;15.20;1.00
51619;DHT22;38518;53.164;5.430;2023-09-30T02:21:19;15.10;1.00
51619;DHT22;38518;53.164;5.430;2023-09-30T02:23:47;15.10;1.00
51619;DHT22;38518;53.164;5.430;2023-09-30T02:26:16;15.10;1.00
51619;DHT22;38518;53.164;5.430;2023-09-30T02:28:43;15.10;1.00
51619;DHT22;38518;53.164;5.430;2023-09-30T02:31:08;15.10;1.00
51619;DHT22;38518;53.164;5.430;2023-09-30T02:33:35;15.10;1.00
51619;DHT22;38518;53.164;5.430;2023-09-30T02:36:07;15.10;1.00
51619;DHT22;38518;53.164;5.430;2023-09-30T02:38:37;15.00;1.00
51619;DHT22;38518;53.164;5.430;2023-09-30T02:41:03;15.10;1.00
51619;DHT22;38518;53.164;5.430;2023-09-30T02:43:29;15.10;1.00
51619;DHT22;38518;53.164;5.430;2023-09-30T02:45:54;15.00;1.00
51619;DHT22;38518;53.164;5.430;2023-09-30T02:48:20;15.10;1.00
51619;DHT22;38518;53.164;5.430;2023-09-30T02:50:46;15.00;1.00
51619;DHT22;38518;53.164;5.430;2023-09-30T02:53:13;15.00;1.00
51619;DHT22;38518;53.164;5.430;2023-09-30T02:55:39;15.00;1.00
51619;DHT22;38518;53.164;5.430;2023-09-30T02:58:06;15.00;1.00
51619;DHT22;38518;53.164;5.430;2023-09-30T03:00:36;15.00;1.00
51619;DHT22;38518;53.164;5.430;2023-09-30T03:03:03;15.00;1.00
51619;DHT22;38518;53.164;5.430;2023-09-30T03:05:29;15.00;1.00
51619;DHT22;38518;53.164;5.430;2023-09-30T03:07:59;15.00;1.00
51619;DHT22;38518;53.164;5.430;2023-09-30T03:10:25;14.90;1.00
51619;DHT22;38518;53.164;5.430;2023-09-30T03:12:53;14.90;1.00
51619;DHT22;38518;53.164;5.430;2023-09-30T03:15:18;14.90;1.00
51619;DHT22;38518;53.164;5.430;2023-09-30T03:17:45;14.90;1.00
51619;DHT22;38518;53.164;5.430;2023-09-30T03:20:11;14.80;1.00
51619;DHT22;38518;53.164;5.430;2023-09-30T03:22:41;14.80;1.00
51619;DHT22;38518;53.164;5.430;2023-09-30T03:25:11;14.80;1.00
51619;DHT22;38518;53.164;5.430;2023-09-30T03:27:37;14.80;1.00
51619;DHT22;38518;53.164;5.430;2023-09-30T03:30:08;14.80;1.00
51619;DHT22;38518;53.164;5.430;2023-09-30T03:32:35;14.80;1.00
51619;DHT22;38518;53.164;5.430;2023-09-30T03:35:08;14.80;1.00
51619;DHT22;38518;53.164;5.430;2023-09-30T03:37:37;14.80;1.00
51619;DHT22;38518;53.164;5.430;2023-09-30T03:40:03;14.70;1.00
51619;DHT22;38518;53.164;5.430;2023-09-30T03:42:42;14.70;1.00
51619;DHT22;38518;53.164;5.430;2023-09-30T03:45:09;14.70;1.00
51619;DHT22;38518;53.164;5.430;2023-09-30T03:47:36;14.70;1.00
51619;DHT22;38518;53.164;5.430;2023-09-30T03:50:02;14.60;1.00
51619;DHT22;38518;53.164;5.430;2023-09-30T03:52:29;14.60;1.00
51619;DHT22;38518;53.164;5.430;2023-09-30T03:54:55;14.60;1.00
51619;DHT22;38518;53.164;5.430;2023-09-30T03:57:21;14.60;1.00
51619;DHT22;38518;53.164;5.430;2023-09-30T03:59:46;14.60;1.00
51619;DHT22;38518;53.164;5.430;2023-09-30T04:02:12;14.60;1.00
51619;DHT22;38518;53.164;5.430;2023-09-30T04:04:40;14.50;1.00
51619;DHT22;38518;53.164;5.430;2023-09-30T04:07:06;14.50;1.00
51619;DHT22;38518;53.164;5.430;2023-09-30T04:09:35;14.50;1.00
51619;DHT22;38518;53.164;5.430;2023-09-30T04:12:01;14.50;1.00
51619;DHT22;38518;53.164;5.430;2023-09-30T04:14:27;14.60;1.00
51619;DHT22;38518;53.164;5.430;2023-09-30T04:16:53;14.50;1.00
51619;DHT22;38518;53.164;5.430;2023-09-30T04:19:21;14.50;1.00
51619;DHT22;38518;53.164;5.430;2023-09-30T04:21:47;14.50;1.00
51619;DHT22;38518;53.164;5.430;2023-09-30T04:24:13;14.40;1.00
51619;DHT22;38518;53.164;5.430;2023-09-30T04:26:39;14.40;1.00
51619;DHT22;38518;53.164;5.430;2023-09-30T04:29:07;14.40;1.00
51619;DHT22;38518;53.164;5.430;2023-09-30T04:31:37;14.40;1.00
51619;DHT22;38518;53.164;5.430;2023-09-30T04:34:04;14.30;1.00
51619;DHT22;38518;53.164;5.430;2023-09-30T04:36:31;14.30;1.00
51619;DHT22;38518;53.164;5.430;2023-09-30T04:38:57;14.30;1.00
51619;DHT22;38518;53.164;5.430;2023-09-30T04:41:26;14.30;1.00
51619;DHT22;38518;53.164;5.430;2023-09-30T04:43:52;14.20;1.00
51619;DHT22;38518;53.164;5.430;2023-09-30T04:46:18;14.20;1.00
51619;DHT22;38518;53.164;5.430;2023-09-30T04:48:46;14.30;1.00
51619;DHT22;38518;53.164;5.430;2023-09-30T04:51:14;14.20;1.00
51619;DHT22;38518;53.164;5.430;2023-09-30T04:53:42;14.20;1.00
51619;DHT22;38518;53.164;5.430;2023-09-30T04:56:07;14.20;1.60
51619;DHT22;38518;53.164;5.430;2023-09-30T04:58:33;14.20;2.20
51619;DHT22;38518;53.164;5.430;2023-09-30T05:00:59;14.20;3.00
51619;DHT22;38518;53.164;5.430;2023-09-30T05:03:24;14.10;5.80
51619;DHT22;38518;53.164;5.430;2023-09-30T05:05:52;14.10;6.80
51619;DHT22;38518;53.164;5.430;2023-09-30T05:08:19;14.10;7.50
51619;DHT22;38518;53.164;5.430;2023-09-30T05:10:45;14.00;8.50
51619;DHT22;38518;53.164;5.430;2023-09-30T05:13:11;14.10;9.30
51619;DHT22;38518;53.164;5.430;2023-09-30T05:15:38;14.00;11.60
51619;DHT22;38518;53.164;5.430;2023-09-30T05:18:03;14.00;12.50
51619;DHT22;38518;53.164;5.430;2023-09-30T05:20:30;14.00;13.70
51619;DHT22;38518;53.164;5.430;2023-09-30T05:22:56;13.90;15.20
51619;DHT22;38518;53.164;5.430;2023-09-30T05:25:21;13.90;16.40
51619;DHT22;38518;53.164;5.430;2023-09-30T05:27:51;13.90;18.50
51619;DHT22;38518;53.164;5.430;2023-09-30T05:30:17;13.90;21.60
51619;DHT22;38518;53.164;5.430;2023-09-30T05:32:45;13.90;26.90
51619;DHT22;38518;53.164;5.430;2023-09-30T05:35:12;13.90;26.50
51619;DHT22;38518;53.164;5.430;2023-09-30T05:37:42;13.90;28.90
51619;DHT22;38518;53.164;5.430;2023-09-30T05:40:08;13.90;31.10
51619;DHT22;38518;53.164;5.430;2023-09-30T05:42:44;13.90;34.40
51619;DHT22;38518;53.164;5.430;2023-09-30T05:45:10;13.80;37.10
51619;DHT22;38518;53.164;5.430;2023-09-30T05:47:38;13.90;42.00
51619;DHT22;38518;53.164;5.430;2023-09-30T05:50:05;13.90;46.20
51619;DHT22;38518;53.164;5.430;2023-09-30T05:52:33;13.90;48.60
51619;DHT22;38518;53.164;5.430;2023-09-30T05:54:59;13.90;50.80
51619;DHT22;38518;53.164;5.430;2023-09-30T05:57:27;13.90;53.90
51619;DHT22;38518;53.164;5.430;2023-09-30T05:59:52;13.90;56.70
51619;DHT22;38518;53.164;5.430;2023-09-30T06:02:18;13.90;58.60
51619;DHT22;38518;53.164;5.430;2023-09-30T06:04:45;13.90;60.60
51619;DHT22;38518;53.164;5.430;2023-09-30T06:07:11;13.90;62.40
51619;DHT22;38518;53.164;5.430;2023-09-30T06:09:38;13.90;69.90
51619;DHT22;38518;53.164;5.430;2023-09-30T06:12:04;14.00;70.10
51619;DHT22;38518;53.164;5.430;2023-09-30T06:14:32;14.00;72.00
51619;DHT22;38518;53.164;5.430;2023-09-30T06:16:58;14.00;75.30
51619;DHT22;38518;53.164;5.430;2023-09-30T06:19:24;14.10;78.60
51619;DHT22;38518;53.164;5.430;2023-09-30T06:21:51;14.10;82.00
51619;DHT22;38518;53.164;5.430;2023-09-30T06:24:17;14.10;86.50
51619;DHT22;38518;53.164;5.430;2023-09-30T06:26:45;14.20;90.90
51619;DHT22;38518;53.164;5.430;2023-09-30T06:29:14;14.40;90.80
51619;DHT22;38518;53.164;5.430;2023-09-30T06:31:40;14.30;91.40
51619;DHT22;38518;53.164;5.430;2023-09-30T06:34:06;14.30;92.20
51619;DHT22;38518;53.164;5.430;2023-09-30T06:36:32;14.40;92.70
51619;DHT22;38518;53.164;5.430;2023-09-30T06:38:58;14.40;93.90
51619;DHT22;38518;53.164;5.430;2023-09-30T06:41:24;14.50;94.60
51619;DHT22;38518;53.164;5.430;2023-09-30T06:43:51;14.60;94.90
51619;DHT22;38518;53.164;5.430;2023-09-30T06:46:17;14.70;94.40
51619;DHT22;38518;53.164;5.430;2023-09-30T06:48:43;14.70;94.70
51619;DHT22;38518;53.164;5.430;2023-09-30T06:51:15;14.90;94.60
51619;DHT22;38518;53.164;5.430;2023-09-30T06:53:41;14.90;93.90
51619;DHT22;38518;53.164;5.430;2023-09-30T06:56:07;15.00;94.70
51619;DHT22;38518;53.164;5.430;2023-09-30T06:58:33;15.30;99.10
51619;DHT22;38518;53.164;5.430;2023-09-30T07:00:59;15.50;99.90
51619;DHT22;38518;53.164;5.430;2023-09-30T07:03:25;15.90;99.90
51619;DHT22;38518;53.164;5.430;2023-09-30T07:05:51;16.30;94.80
51619;DHT22;38518;53.164;5.430;2023-09-30T07:08:19;16.60;79.10
51619;DHT22;38518;53.164;5.430;2023-09-30T07:10:47;16.90;59.40
51619;DHT22;38518;53.164;5.430;2023-09-30T07:13:16;17.20;50.00
51619;DHT22;38518;53.164;5.430;2023-09-30T07:15:41;17.50;40.00
51619;DHT22;38518;53.164;5.430;2023-09-30T07:18:08;17.70;10.40
51619;DHT22;38518;53.164;5.430;2023-09-30T07:20:33;17.70;7.40
51619;DHT22;38518;53.164;5.430;2023-09-30T07:23:00;17.90;4.70
51619;DHT22;38518;53.164;5.430;2023-09-30T07:25:29;18.20;3.00
51619;DHT22;38518;53.164;5.430;2023-09-30T07:27:58;18.40;1.00
51619;DHT22;38518;53.164;5.430;2023-09-30T07:30:24;18.50;1.00
51619;DHT22;38518;53.164;5.430;2023-09-30T07:32:50;18.50;1.00
51619;DHT22;38518;53.164;5.430;2023-09-30T07:35:17;18.30;1.00
51619;DHT22;38518;53.164;5.430;2023-09-30T07:37:43;18.30;1.00
51619;DHT22;38518;53.164;5.430;2023-09-30T07:40:09;18.20;1.00
51619;DHT22;38518;53.164;5.430;2023-09-30T07:42:38;18.50;1.00
51619;DHT22;38518;53.164;5.430;2023-09-30T07:45:04;18.20;1.00
51619;DHT22;38518;53.164;5.430;2023-09-30T07:47:30;18.30;1.00
51619;DHT22;38518;53.164;5.430;2023-09-30T07:50:02;18.40;1.00
51619;DHT22;38518;53.164;5.430;2023-09-30T07:52:32;18.70;1.00
51619;DHT22;38518;53.164;5.430;2023-09-30T07:54:57;19.10;1.00
51619;DHT22;38518;53.164;5.430;2023-09-30T07:57:24;19.50;1.00
51619;DHT22;38518;53.164;5.430;2023-09-30T07:59:50;19.80;1.00
51619;DHT22;38518;53.164;5.430;2023-09-30T08:02:16;20.10;1.00
51619;DHT22;38518;53.164;5.430;2023-09-30T08:04:43;20.80;1.00
51619;DHT22;38518;53.164;5.430;2023-09-30T08:07:09;20.60;1.00
51619;DHT22;38518;53.164;5.430;2023-09-30T08:09:35;21.00;1.00
51619;DHT22;38518;53.164;5.430;2023-09-30T08:12:03;21.20;1.00
51619;DHT22;38518;53.164;5.430;2023-09-30T08:14:28;21.40;1.00
51619;DHT22;38518;53.164;5.430;2023-09-30T08:16:54;21.40;1.00
51619;DHT22;38518;53.164;5.430;2023-09-30T08:19:20;21.40;1.00
51619;DHT22;38518;53.164;5.430;2023-09-30T08:21:46;22.00;1.00
51619;DHT22;38518;53.164;5.430;2023-09-30T08:24:12;22.30;1.00
51619;DHT22;38518;53.164;5.430;2023-09-30T08:26:38;22.40;1.00
51619;DHT22;38518;53.164;5.430;2023-09-30T08:29:04;22.60;1.00
51619;DHT22;38518;53.164;5.430;2023-09-30T08:31:30;22.70;1.00
51619;DHT22;38518;53.164;5.430;2023-09-30T08:34:01;22.90;1.00
51619;DHT22;38518;53.164;5.430;2023-09-30T08:36:29;23.10;1.00
51619;DHT22;38518;53.164;5.430;2023-09-30T08:38:56;23.20;1.00
51619;DHT22;38518;53.164;5.430;2023-09-30T08:41:32;23.30;1.00
51619;DHT22;38518;53.164;5.430;2023-09-30T08:44:03;23.40;1.00
51619;DHT22;38518;53.164;5.430;2023-09-30T08:46:33;23.50;1.00
51619;DHT22;38518;53.164;5.430;2023-09-30T08:49:04;23.70;1.00
51619;DHT22;38518;53.164;5.430;2023-09-30T08:51:30;23.90;1.00
51619;DHT22;38518;53.164;5.430;2023-09-30T08:53:57;24.10;1.00
51619;DHT22;38518;53.164;5.430;2023-09-30T08:56:28;24.20;1.00
51619;DHT22;38518;53.164;5.430;2023-09-30T08:58:59;24.50;1.00
51619;DHT22;38518;53.164;5.430;2023-09-30T09:01:29;24.50;1.00
51619;DHT22;38518;53.164;5.430;2023-09-30T09:03:56;24.30;1.00
51619;DHT22;38518;53.164;5.430;2023-09-30T09:06:23;24.10;1.00
51619;DHT22;38518;53.164;5.430;2023-09-30T09:08:50;24.00;1.00
51619;DHT22;38518;53.164;5.430;2023-09-30T09:11:16;23.60;1.00
51619;DHT22;38518;53.164;5.430;2023-09-30T09:13:48;23.70;1.00
51619;DHT22;38518;53.164;5.430;2023-09-30T09:16:22;23.50;1.00
51619;DHT22;38518;53.164;5.430;2023-09-30T09:18:48;23.10;1.00
51619;DHT22;38518;53.164;5.430;2023-09-30T09:21:19;22.90;1.00
51619;DHT22;38518;53.164;5.430;2023-09-30T09:23:48;23.20;1.00
51619;DHT22;38518;53.164;5.430;2023-09-30T09:26:29;23.60;1.00
51619;DHT22;38518;53.164;5.430;2023-09-30T09:29:02;24.10;1.00
51619;DHT22;38518;53.164;5.430;2023-09-30T09:31:33;24.40;1.00
51619;DHT22;38518;53.164;5.430;2023-09-30T09:34:13;24.80;1.00
51619;DHT22;38518;53.164;5.430;2023-09-30T09:36:41;25.20;1.00
51619;DHT22;38518;53.164;5.430;2023-09-30T09:39:08;25.60;1.00
51619;DHT22;38518;53.164;5.430;2023-09-30T09:41:49;26.20;1.00
51619;DHT22;38518;53.164;5.430;2023-09-30T09:44:18;26.60;1.00
51619;DHT22;38518;53.164;5.430;2023-09-30T09:46:46;26.80;1.00
51619;DHT22;38518;53.164;5.430;2023-09-30T09:49:14;27.20;1.00
51619;DHT22;38518;53.164;5.430;2023-09-30T09:51:45;27.20;1.00
51619;DHT22;38518;53.164;5.430;2023-09-30T09:54:12;27.30;1.00
51619;DHT22;38518;53.164;5.430;2023-09-30T09:56:39;27.60;1.00
51619;DHT22;38518;53.164;5.430;2023-09-30T09:59:05;27.40;1.00
51619;DHT22;38518;53.164;5.430;2023-09-30T10:01:33;27.70;1.00
51619;DHT22;38518;53.164;5.430;2023-09-30T10:04:01;28.10;1.00
51619;DHT22;38518;53.164;5.430;2023-09-30T10:06:27;28.40;1.00
51619;DHT22;38518;53.164;5.430;2023-09-30T10:08:54;28.60;1.00
51619;DHT22;38518;53.164;5.430;2023-09-30T10:11:23;28.80;1.00
51619;DHT22;38518;53.164;5.430;2023-09-30T10:13:56;29.00;1.00
51619;DHT22;38518;53.164;5.430;2023-09-30T10:19:10;29.40;1.00
51619;DHT22;38518;53.164;5.430;2023-09-30T10:21:37;29.40;1.00
51619;DHT22;38518;53.164;5.430;2023-09-30T10:35:42;29.50;1.00
51619;DHT22;38518;53.164;5.430;2023-09-30T10:40:53;29.80;1.00
51619;DHT22;38518;53.164;5.430;2023-09-30T10:43:39;29.70;1.00
51619;DHT22;38518;53.164;5.430;2023-09-30T10:48:51;29.80;1.00
51619;DHT22;38518;53.164;5.430;2023-09-30T10:51:18;30.00;1.00
51619;DHT22;38518;53.164;5.430;2023-09-30T10:53:51;30.00;1.00
51619;DHT22;38518;53.164;5.430;2023-09-30T10:56:19;30.00;1.00
51619;DHT22;38518;53.164;5.430;2023-09-30T10:58:52;29.80;1.00
51619;DHT22;38518;53.164;5.430;2023-09-30T11:01:20;30.00;1.00
51619;DHT22;38518;53.164;5.430;2023-09-30T11:03:47;30.00;1.00
51619;DHT22;38518;53.164;5.430;2023-09-30T11:06:14;30.00;1.00
51619;DHT22;38518;53.164;5.430;2023-09-30T11:08:57;30.00;1.00
51619;DHT22;38518;53.164;5.430;2023-09-30T11:11:44;30.10;1.00
51619;DHT22;38518;53.164;5.430;2023-09-30T11:14:27;30.20;1.00
51619;DHT22;38518;53.164;5.430;2023-09-30T11:16:55;30.20;1.00
51619;DHT22;38518;53.164;5.430;2023-09-30T11:19:22;30.20;1.00
51619;DHT22;38518;53.164;5.430;2023-09-30T11:21:53;30.30;1.00
51619;DHT22;38518;53.164;5.430;2023-09-30T11:24:20;30.40;1.00
51619;DHT22;38518;53.164;5.430;2023-09-30T11:26:47;30.50;1.00
51619;DHT22;38518;53.164;5.430;2023-09-30T11:29:15;30.50;1.00
51619;DHT22;38518;53.164;5.430;2023-09-30T11:31:43;30.70;1.00
51619;DHT22;38518;53.164;5.430;2023-09-30T11:34:09;30.90;1.00
51619;DHT22;38518;53.164;5.430;2023-09-30T11:36:41;31.00;1.00
51619;DHT22;38518;53.164;5.430;2023-09-30T11:39:24;31.00;1.00
51619;DHT22;38518;53.164;5.430;2023-09-30T11:41:51;31.00;1.00
51619;DHT22;38518;53.164;5.430;2023-09-30T11:44:18;31.10;1.00
51619;DHT22;38518;53.164;5.430;2023-09-30T11:46:51;31.30;1.00
51619;DHT22;38518;53.164;5.430;2023-09-30T11:49:41;31.10;1.00
51619;DHT22;38518;53.164;5.430;2023-09-30T11:52:09;31.00;1.00
51619;DHT22;38518;53.164;5.430;2023-09-30T11:54:38;30.50;1.00
51619;DHT22;38518;53.164;5.430;2023-09-30T11:57:07;30.00;1.00
51619;DHT22;38518;53.164;5.430;2023-09-30T11:59:35;29.20;1.00
51619;DHT22;38518;53.164;5.430;2023-09-30T12:02:02;28.80;1.00
51619;DHT22;38518;53.164;5.430;2023-09-30T12:04:29;28.40;1.00
51619;DHT22;38518;53.164;5.430;2023-09-30T12:06:55;28.50;1.00
51619;DHT22;38518;53.164;5.430;2023-09-30T12:09:22;28.30;1.00
51619;DHT22;38518;53.164;5.430;2023-09-30T12:11:51;28.10;1.00
51619;DHT22;38518;53.164;5.430;2023-09-30T12:14:17;28.00;1.00
51619;DHT22;38518;53.164;5.430;2023-09-30T12:16:43;27.80;1.00
51619;DHT22;38518;53.164;5.430;2023-09-30T12:19:13;27.60;1.00
51619;DHT22;38518;53.164;5.430;2023-09-30T12:21:39;27.40;1.00
51619;DHT22;38518;53.164;5.430;2023-09-30T12:24:06;27.00;1.00
51619;DHT22;38518;53.164;5.430;2023-09-30T12:26:33;27.00;1.00
51619;DHT22;38518;53.164;5.430;2023-09-30T12:28:59;27.20;1.00
51619;DHT22;38518;53.164;5.430;2023-09-30T12:31:25;27.60;1.00
51619;DHT22;38518;53.164;5.430;2023-09-30T12:33:51;27.80;1.00
51619;DHT22;38518;53.164;5.430;2023-09-30T12:36:21;28.30;1.00
51619;DHT22;38518;53.164;5.430;2023-09-30T12:38:47;28.80;1.00
51619;DHT22;38518;53.164;5.430;2023-09-30T12:41:13;28.90;1.00
51619;DHT22;38518;53.164;5.430;2023-09-30T12:43:44;28.50;1.00
51619;DHT22;38518;53.164;5.430;2023-09-30T12:46:11;28.20;1.00
51619;DHT22;38518;53.164;5.430;2023-09-30T12:48:40;27.90;1.00
51619;DHT22;38518;53.164;5.430;2023-09-30T12:51:05;27.50;1.00
51619;DHT22;38518;53.164;5.430;2023-09-30T12:53:33;27.10;1.00
51619;DHT22;38518;53.164;5.430;2023-09-30T12:55:59;26.80;1.00
51619;DHT22;38518;53.164;5.430;2023-09-30T12:58:25;26.80;1.00
51619;DHT22;38518;53.164;5.430;2023-09-30T13:00:55;26.90;1.00
51619;DHT22;38518;53.164;5.430;2023-09-30T13:03:20;26.90;1.00
51619;DHT22;38518;53.164;5.430;2023-09-30T13:05:46;26.70;1.00
51619;DHT22;38518;53.164;5.430;2023-09-30T13:08:12;26.60;1.00
51619;DHT22;38518;53.164;5.430;2023-09-30T13:10:38;26.20;1.00
51619;DHT22;38518;53.164;5.430;2023-09-30T13:13:04;26.00;1.00
51619;DHT22;38518;53.164;5.430;2023-09-30T13:15:30;26.30;1.00
51619;DHT22;38518;53.164;5.430;2023-09-30T13:17:56;27.20;1.00
51619;DHT22;38518;53.164;5.430;2023-09-30T13:20:22;27.90;1.00
51619;DHT22;38518;53.164;5.430;2023-09-30T13:22:48;28.20;1.00
51619;DHT22;38518;53.164;5.430;2023-09-30T13:25:15;28.20;1.00
51619;DHT22;38518;53.164;5.430;2023-09-30T13:27:41;28.30;1.00
51619;DHT22;38518;53.164;5.430;2023-09-30T13:30:07;28.30;1.00
51619;DHT22;38518;53.164;5.430;2023-09-30T13:32:34;27.80;1.00
51619;DHT22;38518;53.164;5.430;2023-09-30T13:35:04;27.30;1.00
51619;DHT22;38518;53.164;5.430;2023-09-30T13:37:33;26.90;1.00
51619;DHT22;38518;53.164;5.430;2023-09-30T13:40:00;26.50;1.00
51619;DHT22;38518;53.164;5.430;2023-09-30T13:42:26;26.30;1.00
51619;DHT22;38518;53.164;5.430;2023-09-30T13:44:52;26.30;1.00
51619;DHT22;38518;53.164;5.430;2023-09-30T13:47:18;26.00;1.00
51619;DHT22;38518;53.164;5.430;2023-09-30T13:49:44;25.80;1.00
51619;DHT22;38518;53.164;5.430;2023-09-30T13:52:10;25.70;1.00
51619;DHT22;38518;53.164;5.430;2023-09-30T13:54:36;26.10;1.00
51619;DHT22;38518;53.164;5.430;2023-09-30T13:57:01;26.80;1.00
51619;DHT22;38518;53.164;5.430;2023-09-30T13:59:27;27.40;1.00
51619;DHT22;38518;53.164;5.430;2023-09-30T14:01:53;27.80;1.00
51619;DHT22;38518;53.164;5.430;2023-09-30T14:04:19;27.90;1.00
51619;DHT22;38518;53.164;5.430;2023-09-30T14:06:45;28.10;1.00
51619;DHT22;38518;53.164;5.430;2023-09-30T14:09:13;27.70;1.00
51619;DHT22;38518;53.164;5.430;2023-09-30T14:11:41;27.30;1.00
51619;DHT22;38518;53.164;5.430;2023-09-30T14:14:07;27.20;1.00
51619;DHT22;38518;53.164;5.430;2023-09-30T14:16:35;27.10;1.00
51619;DHT22;38518;53.164;5.430;2023-09-30T14:19:03;26.90;1.00
51619;DHT22;38518;53.164;5.430;2023-09-30T14:21:29;26.30;1.00
51619;DHT22;38518;53.164;5.430;2023-09-30T14:23:55;25.90;1.00
51619;DHT22;38518;53.164;5.430;2023-09-30T14:26:20;25.30;1.00
51619;DHT22;38518;53.164;5.430;2023-09-30T14:28:46;24.90;1.00
51619;DHT22;38518;53.164;5.430;2023-09-30T14:31:12;24.50;1.00
51619;DHT22;38518;53.164;5.430;2023-09-30T14:33:39;24.40;1.00
51619;DHT22;38518;53.164;5.430;2023-09-30T14:36:05;24.20;1.00
51619;DHT22;38518;53.164;5.430;2023-09-30T14:38:31;24.10;1.00
51619;DHT22;38518;53.164;5.430;2023-09-30T14:40:57;24.00;1.00
51619;DHT22;38518;53.164;5.430;2023-09-30T14:43:23;24.20;1.00
51619;DHT22;38518;53.164;5.430;2023-09-30T14:45:48;24.70;1.00
51619;DHT22;38518;53.164;5.430;2023-09-30T14:48:14;25.00;1.00
51619;DHT22;38518;53.164;5.430;2023-09-30T14:50:50;24.80;1.00
51619;DHT22;38518;53.164;5.430;2023-09-30T14:53:16;24.40;1.00
51619;DHT22;38518;53.164;5.430;2023-09-30T14:55:42;24.00;1.00
51619;DHT22;38518;53.164;5.430;2023-09-30T14:58:08;23.50;1.00
51619;DHT22;38518;53.164;5.430;2023-09-30T15:00:34;23.10;1.00
51619;DHT22;38518;53.164;5.430;2023-09-30T15:03:01;22.90;1.00
51619;DHT22;38518;53.164;5.430;2023-09-30T15:05:27;22.40;1.00
51619;DHT22;38518;53.164;5.430;2023-09-30T15:07:53;22.20;1.00
51619;DHT22;38518;53.164;5.430;2023-09-30T15:10:18;22.00;1.00
51619;DHT22;38518;53.164;5.430;2023-09-30T15:12:44;21.80;1.00
51619;DHT22;38518;53.164;5.430;2023-09-30T15:15:10;21.70;1.00
51619;DHT22;38518;53.164;5.430;2023-09-30T15:17:36;21.50;1.00
51619;DHT22;38518;53.164;5.430;2023-09-30T15:20:02;21.40;1.00
51619;DHT22;38518;53.164;5.430;2023-09-30T15:22:28;21.30;1.00
51619;DHT22;38518;53.164;5.430;2023-09-30T15:24:54;21.20;1.00
51619;DHT22;38518;53.164;5.430;2023-09-30T15:27:20;21.00;1.00
51619;DHT22;38518;53.164;5.430;2023-09-30T15:29:47;21.20;1.00
51619;DHT22;38518;53.164;5.430;2023-09-30T15:32:13;20.70;1.00
51619;DHT22;38518;53.164;5.430;2023-09-30T15:34:39;20.60;1.00
51619;DHT22;38518;53.164;5.430;2023-09-30T15:37:06;20.40;1.00
51619;DHT22;38518;53.164;5.430;2023-09-30T15:39:42;20.30;1.00
51619;DHT22;38518;53.164;5.430;2023-09-30T15:42:08;20.30;1.00
51619;DHT22;38518;53.164;5.430;2023-09-30T15:44:41;20.20;1.00
51619;DHT22;38518;53.164;5.430;2023-09-30T15:47:07;20.10;1.00
51619;DHT22;38518;53.164;5.430;2023-09-30T15:49:34;20.00;1.00
51619;DHT22;38518;53.164;5.430;2023-09-30T15:52:00;20.00;1.00
51619;DHT22;38518;53.164;5.430;2023-09-30T15:54:26;20.00;1.00
51619;DHT22;38518;53.164;5.430;2023-09-30T15:56:52;19.90;1.00
51619;DHT22;38518;53.164;5.430;2023-09-30T15:59:18;19.90;1.00
51619;DHT22;38518;53.164;5.430;2023-09-30T16:01:44;19.90;1.00
51619;DHT22;38518;53.164;5.430;2023-09-30T16:04:10;19.90;1.00